ARG1524 SANT-SABE
Flight info
| Callsign | ARG1524 |
|---|---|
| Flight time | N/A |
| Altitude | 37000 |
| Route | PUBER3E PUBER UL550 ROS UT672 MULTA UW24 SNT SNT9R |
| Aircraft | B738/M-SDE2E3FGHIRWXY/LB1 |
Departure
| Time | N/A |
|---|---|
| Airport | Teniente Benjamín Matienzo International Airport (SANT) |
Arrival
| Time | 2026-05-03 21:09 |
|---|---|
| Airport | Aeroparque Jorge Newbery (SABE) |
| Time | Latitude | Longitude | Altitude | Speed | Heading |
|---|---|---|---|---|---|
| 2026-05-03 20:15 | -30.75604 | -62.39700 | 37055 ft | 462 kts | 156° |
| 2026-05-03 20:15 | -30.81002 | -62.35762 | 37054 ft | 460 kts | 157° |
| 2026-05-03 20:16 | -30.86423 | -62.31839 | 37056 ft | 458 kts | 157° |
| 2026-05-03 20:16 | -30.91824 | -62.27927 | 37055 ft | 457 kts | 157° |
| 2026-05-03 20:17 | -30.97210 | -62.24014 | 37056 ft | 455 kts | 157° |
| 2026-05-03 20:17 | -31.02578 | -62.20109 | 37055 ft | 454 kts | 157° |
| 2026-05-03 20:18 | -31.07936 | -62.16203 | 37058 ft | 454 kts | 157° |
| 2026-05-03 20:18 | -31.13284 | -62.12296 | 37059 ft | 453 kts | 157° |
| 2026-05-03 20:19 | -31.18631 | -62.08385 | 37062 ft | 454 kts | 157° |
| 2026-05-03 20:19 | -31.23975 | -62.04446 | 37062 ft | 454 kts | 156° |
| 2026-05-03 20:20 | -31.29310 | -62.00473 | 37065 ft | 455 kts | 156° |
| 2026-05-03 20:20 | -31.34648 | -61.96492 | 37063 ft | 455 kts | 156° |
| 2026-05-03 20:21 | -31.39995 | -61.92502 | 37063 ft | 456 kts | 156° |
| 2026-05-03 20:21 | -31.45347 | -61.88506 | 37057 ft | 456 kts | 156° |
| 2026-05-03 20:22 | -31.50696 | -61.84506 | 37058 ft | 456 kts | 156° |
| 2026-05-03 20:22 | -31.56050 | -61.80497 | 37061 ft | 456 kts | 156° |
| 2026-05-03 20:23 | -31.61401 | -61.76485 | 37063 ft | 456 kts | 156° |
| 2026-05-03 20:23 | -31.66714 | -61.72495 | 37059 ft | 456 kts | 156° |
| 2026-05-03 20:24 | -31.72059 | -61.68476 | 37063 ft | 456 kts | 156° |
| 2026-05-03 20:24 | -31.77398 | -61.64456 | 37061 ft | 456 kts | 156° |
| 2026-05-03 20:25 | -31.82732 | -61.60433 | 37062 ft | 455 kts | 156° |
| 2026-05-03 20:25 | -31.88061 | -61.56410 | 37062 ft | 455 kts | 156° |
| 2026-05-03 20:26 | -31.93390 | -61.52387 | 37062 ft | 455 kts | 156° |
| 2026-05-03 20:26 | -31.98712 | -61.48368 | 37060 ft | 454 kts | 156° |
| 2026-05-03 20:27 | -32.04031 | -61.44345 | 37062 ft | 454 kts | 156° |
| 2026-05-03 20:27 | -32.09342 | -61.40321 | 37064 ft | 454 kts | 156° |
| 2026-05-03 20:28 | -32.14652 | -61.36291 | 37061 ft | 454 kts | 156° |
| 2026-05-03 20:28 | -32.19960 | -61.32257 | 37067 ft | 454 kts | 156° |
| 2026-05-03 20:29 | -32.25263 | -61.28222 | 37065 ft | 454 kts | 155° |
| 2026-05-03 20:29 | -32.30569 | -61.24178 | 37064 ft | 453 kts | 155° |
| 2026-05-03 20:30 | -32.35868 | -61.20134 | 37064 ft | 453 kts | 155° |
| 2026-05-03 20:30 | -32.41162 | -61.16088 | 37062 ft | 453 kts | 155° |
| 2026-05-03 20:31 | -32.46457 | -61.12037 | 37069 ft | 453 kts | 155° |
| 2026-05-03 20:31 | -32.51753 | -61.07978 | 37063 ft | 453 kts | 155° |
| 2026-05-03 20:31 | -32.54378 | -61.05960 | 36942 ft | 445 kts | 155° |
| 2026-05-03 20:32 | -32.56960 | -61.03972 | 36405 ft | 442 kts | 155° |
| 2026-05-03 20:32 | -32.59548 | -61.01985 | 35666 ft | 445 kts | 155° |
| 2026-05-03 20:32 | -32.62159 | -60.99984 | 34890 ft | 449 kts | 155° |
| 2026-05-03 20:32 | -32.64790 | -60.97965 | 34158 ft | 452 kts | 155° |
| 2026-05-03 20:33 | -32.67435 | -60.95931 | 33345 ft | 454 kts | 155° |
| 2026-05-03 20:33 | -32.70090 | -60.93886 | 32489 ft | 456 kts | 154° |
| 2026-05-03 20:34 | -32.77639 | -60.88053 | 31145 ft | 457 kts | 154° |
| 2026-05-03 20:34 | -32.80333 | -60.85979 | 30746 ft | 466 kts | 154° |
| 2026-05-03 20:34 | -32.83055 | -60.83874 | 30656 ft | 467 kts | 154° |
| 2026-05-03 20:34 | -32.85776 | -60.81765 | 30545 ft | 468 kts | 154° |
| 2026-05-03 20:35 | -32.88503 | -60.79650 | 30436 ft | 468 kts | 154° |
| 2026-05-03 20:35 | -32.91241 | -60.77549 | 30332 ft | 468 kts | 155° |
| 2026-05-03 20:35 | -32.94024 | -60.75550 | 30222 ft | 467 kts | 156° |
| 2026-05-03 20:36 | -32.99642 | -60.71720 | 30162 ft | 463 kts | 157° |
| 2026-05-03 20:36 | -33.05195 | -60.67951 | 30054 ft | 452 kts | 157° |
| 2026-05-03 20:37 | -33.10614 | -60.64230 | 30065 ft | 451 kts | 157° |
| 2026-05-03 20:37 | -33.16069 | -60.60468 | 30064 ft | 453 kts | 156° |
| 2026-05-03 20:38 | -33.21531 | -60.56684 | 30065 ft | 454 kts | 156° |
| 2026-05-03 20:38 | -33.27001 | -60.52887 | 30067 ft | 454 kts | 156° |
| 2026-05-03 20:39 | -33.32464 | -60.49090 | 30063 ft | 454 kts | 156° |
| 2026-05-03 20:39 | -33.37929 | -60.45287 | 30063 ft | 454 kts | 156° |
| 2026-05-03 20:40 | -33.43389 | -60.41482 | 30064 ft | 454 kts | 156° |
| 2026-05-03 20:40 | -33.48843 | -60.37675 | 30062 ft | 453 kts | 156° |
| 2026-05-03 20:41 | -33.54290 | -60.33868 | 30062 ft | 453 kts | 156° |
| 2026-05-03 20:41 | -33.59733 | -60.30058 | 30062 ft | 453 kts | 156° |
| 2026-05-03 20:42 | -33.65175 | -60.26243 | 30058 ft | 453 kts | 156° |
| 2026-05-03 20:42 | -33.70615 | -60.22424 | 30061 ft | 453 kts | 156° |
| 2026-05-03 20:43 | -33.76079 | -60.18689 | 30046 ft | 446 kts | 165° |
| 2026-05-03 20:43 | -33.79015 | -60.17710 | 30084 ft | 433 kts | 176° |
| 2026-05-03 20:43 | -33.81988 | -60.17200 | 30064 ft | 431 kts | 180° |
| 2026-05-03 20:44 | -33.87929 | -60.16879 | 30064 ft | 425 kts | 187° |
| 2026-05-03 20:44 | -33.93836 | -60.17058 | 30055 ft | 425 kts | 187° |
| 2026-05-03 20:45 | -33.99720 | -60.17208 | 30058 ft | 426 kts | 187° |
| 2026-05-03 20:45 | -34.05655 | -60.17336 | 30058 ft | 427 kts | 187° |
| 2026-05-03 20:46 | -34.11594 | -60.17457 | 30057 ft | 427 kts | 187° |
| 2026-05-03 20:46 | -34.17501 | -60.16322 | 30065 ft | 452 kts | 158° |
| 2026-05-03 20:46 | -34.20046 | -60.13971 | 30058 ft | 471 kts | 138° |
| 2026-05-03 20:47 | -34.21859 | -60.10615 | 30065 ft | 486 kts | 118° |
| 2026-05-03 20:47 | -34.22685 | -60.06690 | 30041 ft | 481 kts | 97° |
| 2026-05-03 20:47 | -34.22396 | -60.02719 | 30040 ft | 471 kts | 75° |
| 2026-05-03 20:47 | -34.21447 | -59.98999 | 29967 ft | 456 kts | 81° |
| 2026-05-03 20:48 | -34.21265 | -59.95242 | 29687 ft | 443 kts | 95° |
| 2026-05-03 20:48 | -34.21351 | -59.91543 | 29262 ft | 439 kts | 95° |
| 2026-05-03 20:48 | -34.21426 | -59.87856 | 28746 ft | 439 kts | 95° |
| 2026-05-03 20:48 | -34.21496 | -59.84181 | 28267 ft | 437 kts | 94° |
| 2026-05-03 20:49 | -34.21563 | -59.80528 | 27852 ft | 433 kts | 94° |
| 2026-05-03 20:49 | -34.21630 | -59.76905 | 27460 ft | 430 kts | 94° |
| 2026-05-03 20:49 | -34.21695 | -59.73310 | 27065 ft | 426 kts | 94° |
| 2026-05-03 20:49 | -34.21760 | -59.69740 | 26661 ft | 424 kts | 94° |
| 2026-05-03 20:50 | -34.21824 | -59.66194 | 26271 ft | 421 kts | 94° |
| 2026-05-03 20:50 | -34.21887 | -59.62667 | 25881 ft | 418 kts | 94° |
| 2026-05-03 20:50 | -34.21948 | -59.59169 | 25501 ft | 416 kts | 94° |
| 2026-05-03 20:50 | -34.22008 | -59.55688 | 25127 ft | 413 kts | 94° |
| 2026-05-03 20:51 | -34.22067 | -59.52231 | 24762 ft | 410 kts | 94° |
| 2026-05-03 20:51 | -34.22124 | -59.48797 | 24397 ft | 408 kts | 93° |
| 2026-05-03 20:51 | -34.22252 | -59.45390 | 24028 ft | 403 kts | 100° |
| 2026-05-03 20:51 | -34.22799 | -59.42110 | 23624 ft | 393 kts | 110° |
| 2026-05-03 20:52 | -34.23752 | -59.39061 | 22942 ft | 386 kts | 120° |
| 2026-05-03 20:52 | -34.24934 | -59.36164 | 22268 ft | 382 kts | 121° |
| 2026-05-03 20:52 | -34.26145 | -59.33322 | 21684 ft | 378 kts | 122° |
| 2026-05-03 20:52 | -34.27347 | -59.30521 | 21107 ft | 374 kts | 122° |
| 2026-05-03 20:53 | -34.28533 | -59.27741 | 20527 ft | 370 kts | 121° |
| 2026-05-03 20:53 | -34.29703 | -59.24978 | 19957 ft | 368 kts | 121° |
| 2026-05-03 20:53 | -34.30857 | -59.22232 | 19403 ft | 365 kts | 121° |
| 2026-05-03 20:53 | -34.31998 | -59.19502 | 18856 ft | 362 kts | 121° |
| 2026-05-03 20:54 | -34.33127 | -59.16790 | 18318 ft | 359 kts | 121° |
| 2026-05-03 20:54 | -34.35389 | -59.11345 | 16723 ft | 364 kts | 120° |
| 2026-05-03 20:54 | -34.36506 | -59.08650 | 16136 ft | 360 kts | 120° |
| 2026-05-03 20:55 | -34.37634 | -59.05920 | 15567 ft | 356 kts | 120° |
| 2026-05-03 20:55 | -34.38719 | -59.03292 | 14990 ft | 352 kts | 119° |
| 2026-05-03 20:55 | -34.39806 | -59.00659 | 14588 ft | 344 kts | 119° |
| 2026-05-03 20:55 | -34.40856 | -58.98110 | 14249 ft | 334 kts | 119° |
| 2026-05-03 20:56 | -34.41889 | -58.95605 | 13720 ft | 332 kts | 119° |
| 2026-05-03 20:56 | -34.42918 | -58.93109 | 13115 ft | 331 kts | 118° |
| 2026-05-03 20:56 | -34.43942 | -58.90626 | 12558 ft | 329 kts | 118° |
| 2026-05-03 20:56 | -34.44958 | -58.88157 | 12026 ft | 326 kts | 118° |
| 2026-05-03 20:57 | -34.45965 | -58.85709 | 11493 ft | 324 kts | 118° |
| 2026-05-03 20:57 | -34.46972 | -58.83259 | 11030 ft | 326 kts | 118° |
| 2026-05-03 20:57 | -34.47964 | -58.80842 | 10963 ft | 315 kts | 118° |
| 2026-05-03 20:57 | -34.48927 | -58.78494 | 10785 ft | 309 kts | 118° |
| 2026-05-03 20:58 | -34.49881 | -58.76167 | 10472 ft | 308 kts | 117° |
| 2026-05-03 20:58 | -34.50835 | -58.73839 | 10152 ft | 308 kts | 117° |
| 2026-05-03 20:58 | -34.51787 | -58.71515 | 9841 ft | 308 kts | 117° |
| 2026-05-03 20:58 | -34.52736 | -58.69197 | 9512 ft | 306 kts | 117° |
| 2026-05-03 20:59 | -34.53675 | -58.66900 | 9223 ft | 303 kts | 117° |
| 2026-05-03 20:59 | -34.54609 | -58.64613 | 8935 ft | 301 kts | 117° |
| 2026-05-03 20:59 | -34.55537 | -58.62341 | 8650 ft | 299 kts | 117° |
| 2026-05-03 20:59 | -34.56458 | -58.60083 | 8361 ft | 297 kts | 117° |
| 2026-05-03 21:00 | -34.57372 | -58.57841 | 8068 ft | 296 kts | 117° |
| 2026-05-03 21:00 | -34.57681 | -58.57083 | 7979 ft | 296 kts | 117° |
| 2026-05-03 21:00 | -34.59190 | -58.53380 | 7520 ft | 292 kts | 117° |
| 2026-05-03 21:00 | -34.60086 | -58.51177 | 7263 ft | 291 kts | 116° |
| 2026-05-03 21:01 | -34.60979 | -58.48981 | 7005 ft | 289 kts | 116° |
| 2026-05-03 21:01 | -34.61865 | -58.46799 | 6730 ft | 288 kts | 116° |
| 2026-05-03 21:01 | -34.62747 | -58.44628 | 6467 ft | 286 kts | 116° |
| 2026-05-03 21:01 | -34.63624 | -58.42468 | 6170 ft | 284 kts | 116° |
| 2026-05-03 21:02 | -34.64477 | -58.40364 | 6078 ft | 270 kts | 116° |
| 2026-05-03 21:02 | -34.65287 | -58.38366 | 5885 ft | 260 kts | 116° |
| 2026-05-03 21:02 | -34.66081 | -58.36407 | 5500 ft | 258 kts | 116° |
| 2026-05-03 21:02 | -34.66872 | -58.34453 | 5131 ft | 259 kts | 116° |
| 2026-05-03 21:03 | -34.67671 | -58.32504 | 4944 ft | 253 kts | 117° |
| 2026-05-03 21:03 | -34.68522 | -58.30680 | 4787 ft | 241 kts | 120° |
| 2026-05-03 21:03 | -34.69344 | -58.28975 | 4688 ft | 227 kts | 120° |
| 2026-05-03 21:03 | -34.70121 | -58.27368 | 4499 ft | 217 kts | 120° |
| 2026-05-03 21:04 | -34.70765 | -58.25733 | 4165 ft | 213 kts | 96° |
| 2026-05-03 21:04 | -34.70495 | -58.24100 | 3881 ft | 196 kts | 49° |
| 2026-05-03 21:04 | -34.69414 | -58.23317 | 3555 ft | 179 kts | 359° |
| 2026-05-03 21:04 | -34.68249 | -58.23708 | 3243 ft | 171 kts | 341° |
| 2026-05-03 21:05 | -34.67075 | -58.23588 | 3051 ft | 174 kts | 13° |
| 2026-05-03 21:05 | -34.65911 | -58.23654 | 2999 ft | 170 kts | 330° |
| 2026-05-03 21:05 | -34.65088 | -58.24661 | 3008 ft | 173 kts | 312° |
| 2026-05-03 21:05 | -34.64379 | -58.25870 | 2994 ft | 174 kts | 303° |
| 2026-05-03 21:06 | -34.63777 | -58.27125 | 2995 ft | 175 kts | 303° |
| 2026-05-03 21:06 | -34.63141 | -58.28389 | 2993 ft | 175 kts | 304° |
| 2026-05-03 21:06 | -34.62532 | -58.29595 | 2814 ft | 163 kts | 304° |
| 2026-05-03 21:06 | -34.61940 | -58.30747 | 2209 ft | 159 kts | 307° |
| 2026-05-03 21:07 | -34.61344 | -58.31850 | 1789 ft | 150 kts | 309° |
| 2026-05-03 21:07 | -34.60784 | -58.32865 | 1606 ft | 139 kts | 310° |
| 2026-05-03 21:07 | -34.60430 | -58.33500 | 1468 ft | 135 kts | 311° |
| 2026-05-03 21:07 | -34.59752 | -58.34715 | 1251 ft | 132 kts | 310° |
| 2026-05-03 21:08 | -34.59399 | -58.35345 | 1125 ft | 135 kts | 309° |
| 2026-05-03 21:08 | -34.58876 | -58.36281 | 934 ft | 132 kts | 309° |
| 2026-05-03 21:08 | -34.58199 | -58.37491 | 717 ft | 132 kts | 309° |
| 2026-05-03 21:08 | -34.57658 | -58.38459 | 561 ft | 141 kts | 308° |
| 2026-05-03 21:09 | -34.57113 | -58.39439 | 320 ft | 139 kts | 306° |
| 2026-05-03 21:09 | -34.56586 | -58.40397 | 114 ft | 136 kts | 306° |
| 2026-05-03 21:09 | -34.56088 | -58.41281 | 26 ft | 92 kts | 304° |
| 2026-05-03 21:09 | -34.55887 | -58.41643 | 24 ft | 38 kts | 304° |
| 2026-05-03 21:10 | -34.55759 | -58.41875 | 26 ft | 23 kts | 304° |
| 2026-05-03 21:10 | -34.55703 | -58.41910 | 28 ft | 5 kts | 16° |
| 2026-05-03 21:10 | -34.55681 | -58.41887 | 24 ft | 4 kts | 64° |
| 2026-05-03 21:10 | -34.55686 | -58.41853 | 24 ft | 4 kts | 109° |
| 2026-05-03 21:11 | -34.55700 | -58.41822 | 27 ft | 4 kts | 123° |
| 2026-05-03 21:11 | -34.55720 | -58.41786 | 25 ft | 6 kts | 123° |
| 2026-05-03 21:11 | -34.55736 | -58.41753 | 27 ft | 8 kts | 118° |
| 2026-05-03 21:11 | -34.55763 | -58.41689 | 25 ft | 0 kts | 116° |
| 2026-05-03 21:12 | -34.55772 | -58.41667 | 24 ft | 6 kts | 116° |
| 2026-05-03 21:12 | -34.55773 | -58.41663 | 25 ft | 1 kts | 116° |
| 2026-05-03 21:12 | -34.55784 | -58.41638 | 26 ft | 6 kts | 116° |
| 2026-05-03 21:12 | -34.55785 | -58.41611 | 24 ft | 2 kts | 74° |
| 2026-05-03 21:13 | -34.55777 | -58.41597 | 24 ft | 3 kts | 45° |
| 2026-05-03 21:13 | -34.55756 | -58.41579 | 24 ft | 4 kts | 26° |
| 2026-05-03 21:13 | -34.55733 | -58.41577 | 29 ft | 4 kts | 346° |
| 2026-05-03 21:13 | -34.55715 | -58.41607 | 27 ft | 6 kts | 291° |
| 2026-05-03 21:14 | -34.55699 | -58.41645 | 28 ft | 4 kts | 304° |
| 2026-05-03 21:14 | -34.55673 | -58.41662 | 26 ft | 5 kts | 6° |
| 2026-05-03 21:14 | -34.55647 | -58.41647 | 25 ft | 3 kts | 32° |
| 2026-05-03 21:14 | -34.55639 | -58.41640 | 25 ft | 1 kts | 34° |
| 2026-05-03 21:15 | -34.55635 | -58.41637 | 25 ft | 1 kts | 34° |
| 2026-05-03 21:15 | -34.55631 | -58.41634 | 25 ft | 1 kts | 34° |
| 2026-05-03 21:15 | -34.55629 | -58.41632 | 25 ft | 0 kts | 34° |